sensor_id;sensor_type;location;lat;lon;timestamp;P1;durP1;ratioP1;P2;durP2;ratioP2
47912;SDS011;33676;51.006;17.180;2023-09-08T00:02:26;13.30;;;12.10;;
47912;SDS011;33676;51.006;17.180;2023-09-08T00:04:54;11.00;;;10.00;;
47912;SDS011;33676;51.006;17.180;2023-09-08T00:07:22;10.00;;;9.20;;
47912;SDS011;33676;51.006;17.180;2023-09-08T00:09:49;10.90;;;9.90;;
47912;SDS011;33676;51.006;17.180;2023-09-08T00:12:16;9.20;;;8.10;;
47912;SDS011;33676;51.006;17.180;2023-09-08T00:14:44;8.90;;;8.10;;
47912;SDS011;33676;51.006;17.180;2023-09-08T00:17:11;11.00;;;9.90;;
47912;SDS011;33676;51.006;17.180;2023-09-08T00:19:38;9.90;;;8.90;;
47912;SDS011;33676;51.006;17.180;2023-09-08T00:22:05;10.70;;;9.60;;
47912;SDS011;33676;51.006;17.180;2023-09-08T00:24:33;9.50;;;8.60;;
47912;SDS011;33676;51.006;17.180;2023-09-08T00:27:00;9.30;;;8.50;;
47912;SDS011;33676;51.006;17.180;2023-09-08T00:29:28;10.00;;;9.00;;
47912;SDS011;33676;51.006;17.180;2023-09-08T00:31:55;12.30;;;8.80;;
47912;SDS011;33676;51.006;17.180;2023-09-08T00:34:22;9.50;;;8.60;;
47912;SDS011;33676;51.006;17.180;2023-09-08T00:36:49;8.70;;;7.90;;
47912;SDS011;33676;51.006;17.180;2023-09-08T00:39:17;8.30;;;7.60;;
47912;SDS011;33676;51.006;17.180;2023-09-08T00:41:45;10.90;;;9.80;;
47912;SDS011;33676;51.006;17.180;2023-09-08T00:44:12;10.10;;;9.40;;
47912;SDS011;33676;51.006;17.180;2023-09-08T00:46:39;9.70;;;8.70;;
47912;SDS011;33676;51.006;17.180;2023-09-08T00:49:07;9.20;;;8.50;;
47912;SDS011;33676;51.006;17.180;2023-09-08T00:51:35;9.40;;;8.70;;
47912;SDS011;33676;51.006;17.180;2023-09-08T00:54:06;10.30;;;9.40;;
47912;SDS011;33676;51.006;17.180;2023-09-08T00:56:34;10.20;;;9.20;;
47912;SDS011;33676;51.006;17.180;2023-09-08T00:59:04;9.30;;;8.50;;
47912;SDS011;33676;51.006;17.180;2023-09-08T01:01:32;9.20;;;8.50;;
47912;SDS011;33676;51.006;17.180;2023-09-08T01:04:01;8.90;;;8.10;;
47912;SDS011;33676;51.006;17.180;2023-09-08T01:06:29;8.20;;;7.60;;
47912;SDS011;33676;51.006;17.180;2023-09-08T01:08:59;9.30;;;8.50;;
47912;SDS011;33676;51.006;17.180;2023-09-08T01:11:27;10.30;;;9.30;;
47912;SDS011;33676;51.006;17.180;2023-09-08T01:13:54;9.60;;;8.70;;
47912;SDS011;33676;51.006;17.180;2023-09-08T01:16:21;9.20;;;8.40;;
47912;SDS011;33676;51.006;17.180;2023-09-08T01:18:49;9.80;;;8.80;;
47912;SDS011;33676;51.006;17.180;2023-09-08T01:21:35;10.30;;;9.30;;
47912;SDS011;33676;51.006;17.180;2023-09-08T01:26:41;9.80;;;8.80;;
47912;SDS011;33676;51.006;17.180;2023-09-08T01:29:09;9.30;;;8.40;;
47912;SDS011;33676;51.006;17.180;2023-09-08T01:31:37;9.60;;;8.70;;
47912;SDS011;33676;51.006;17.180;2023-09-08T01:34:05;10.20;;;9.20;;
47912;SDS011;33676;51.006;17.180;2023-09-08T01:36:34;10.20;;;9.30;;
47912;SDS011;33676;51.006;17.180;2023-09-08T01:39:02;10.90;;;10.00;;
47912;SDS011;33676;51.006;17.180;2023-09-08T01:41:29;10.40;;;9.50;;
47912;SDS011;33676;51.006;17.180;2023-09-08T01:43:59;11.70;;;10.70;;
47912;SDS011;33676;51.006;17.180;2023-09-08T01:46:26;10.70;;;9.70;;
47912;SDS011;33676;51.006;17.180;2023-09-08T01:48:53;12.00;;;10.90;;
47912;SDS011;33676;51.006;17.180;2023-09-08T01:51:20;11.30;;;10.20;;
47912;SDS011;33676;51.006;17.180;2023-09-08T01:53:47;11.60;;;10.40;;
47912;SDS011;33676;51.006;17.180;2023-09-08T01:56:14;11.70;;;10.50;;
47912;SDS011;33676;51.006;17.180;2023-09-08T01:58:41;9.80;;;9.00;;
47912;SDS011;33676;51.006;17.180;2023-09-08T02:01:09;12.00;;;9.80;;
47912;SDS011;33676;51.006;17.180;2023-09-08T02:03:36;19.80;;;12.10;;
47912;SDS011;33676;51.006;17.180;2023-09-08T02:06:03;11.70;;;10.70;;
47912;SDS011;33676;51.006;17.180;2023-09-08T02:08:30;11.30;;;10.40;;
47912;SDS011;33676;51.006;17.180;2023-09-08T02:10:57;12.70;;;11.40;;
47912;SDS011;33676;51.006;17.180;2023-09-08T02:13:24;12.10;;;10.90;;
47912;SDS011;33676;51.006;17.180;2023-09-08T02:15:50;14.30;;;12.20;;
47912;SDS011;33676;51.006;17.180;2023-09-08T02:18:18;13.60;;;12.30;;
47912;SDS011;33676;51.006;17.180;2023-09-08T02:20:45;12.10;;;10.90;;
47912;SDS011;33676;51.006;17.180;2023-09-08T02:23:12;12.30;;;11.00;;
47912;SDS011;33676;51.006;17.180;2023-09-08T02:25:39;11.00;;;9.90;;
47912;SDS011;33676;51.006;17.180;2023-09-08T02:28:06;13.30;;;12.00;;
47912;SDS011;33676;51.006;17.180;2023-09-08T02:30:33;11.40;;;10.40;;
47912;SDS011;33676;51.006;17.180;2023-09-08T02:33:00;12.70;;;11.60;;
47912;SDS011;33676;51.006;17.180;2023-09-08T02:35:29;10.90;;;10.00;;
47912;SDS011;33676;51.006;17.180;2023-09-08T02:37:57;10.80;;;9.80;;
47912;SDS011;33676;51.006;17.180;2023-09-08T02:40:24;12.10;;;11.10;;
47912;SDS011;33676;51.006;17.180;2023-09-08T02:42:51;12.60;;;11.40;;
47912;SDS011;33676;51.006;17.180;2023-09-08T02:45:18;12.70;;;11.50;;
47912;SDS011;33676;51.006;17.180;2023-09-08T02:47:45;12.60;;;11.20;;
47912;SDS011;33676;51.006;17.180;2023-09-08T02:50:12;12.90;;;10.10;;
47912;SDS011;33676;51.006;17.180;2023-09-08T02:52:39;12.50;;;11.40;;
47912;SDS011;33676;51.006;17.180;2023-09-08T02:55:06;13.30;;;12.00;;
47912;SDS011;33676;51.006;17.180;2023-09-08T02:57:33;12.20;;;11.00;;
47912;SDS011;33676;51.006;17.180;2023-09-08T03:00:00;11.70;;;10.60;;
47912;SDS011;33676;51.006;17.180;2023-09-08T03:02:27;11.70;;;10.70;;
47912;SDS011;33676;51.006;17.180;2023-09-08T03:04:54;11.30;;;10.30;;
47912;SDS011;33676;51.006;17.180;2023-09-08T03:07:22;11.80;;;10.70;;
47912;SDS011;33676;51.006;17.180;2023-09-08T03:09:49;10.80;;;9.80;;
47912;SDS011;33676;51.006;17.180;2023-09-08T03:12:16;11.30;;;10.10;;
47912;SDS011;33676;51.006;17.180;2023-09-08T03:14:43;11.20;;;10.20;;
47912;SDS011;33676;51.006;17.180;2023-09-08T03:17:11;13.10;;;10.90;;
47912;SDS011;33676;51.006;17.180;2023-09-08T03:19:39;10.70;;;9.60;;
47912;SDS011;33676;51.006;17.180;2023-09-08T03:22:06;11.10;;;10.10;;
47912;SDS011;33676;51.006;17.180;2023-09-08T03:24:33;10.90;;;10.00;;
47912;SDS011;33676;51.006;17.180;2023-09-08T03:27:00;11.00;;;9.90;;
47912;SDS011;33676;51.006;17.180;2023-09-08T03:29:27;12.20;;;11.20;;
47912;SDS011;33676;51.006;17.180;2023-09-08T03:31:54;12.00;;;10.80;;
47912;SDS011;33676;51.006;17.180;2023-09-08T03:34:21;14.30;;;12.90;;
47912;SDS011;33676;51.006;17.180;2023-09-08T03:36:49;16.60;;;13.70;;
47912;SDS011;33676;51.006;17.180;2023-09-08T03:39:16;13.30;;;12.20;;
47912;SDS011;33676;51.006;17.180;2023-09-08T03:41:43;13.80;;;12.60;;
47912;SDS011;33676;51.006;17.180;2023-09-08T03:44:10;13.40;;;11.00;;
47912;SDS011;33676;51.006;17.180;2023-09-08T03:46:37;13.00;;;11.90;;
47912;SDS011;33676;51.006;17.180;2023-09-08T03:49:04;13.20;;;11.80;;
47912;SDS011;33676;51.006;17.180;2023-09-08T03:51:31;13.40;;;12.10;;
47912;SDS011;33676;51.006;17.180;2023-09-08T03:53:58;10.80;;;9.80;;
47912;SDS011;33676;51.006;17.180;2023-09-08T03:56:26;12.10;;;10.80;;
47912;SDS011;33676;51.006;17.180;2023-09-08T03:58:53;11.50;;;10.60;;
47912;SDS011;33676;51.006;17.180;2023-09-08T04:01:20;11.60;;;10.70;;
47912;SDS011;33676;51.006;17.180;2023-09-08T04:03:47;11.60;;;10.70;;
47912;SDS011;33676;51.006;17.180;2023-09-08T04:06:14;11.50;;;10.50;;
47912;SDS011;33676;51.006;17.180;2023-09-08T04:08:41;11.80;;;10.50;;
47912;SDS011;33676;51.006;17.180;2023-09-08T04:11:07;10.30;;;9.30;;
47912;SDS011;33676;51.006;17.180;2023-09-08T04:13:35;12.10;;;10.80;;
47912;SDS011;33676;51.006;17.180;2023-09-08T04:16:02;10.00;;;9.10;;
47912;SDS011;33676;51.006;17.180;2023-09-08T04:18:29;9.50;;;8.80;;
47912;SDS011;33676;51.006;17.180;2023-09-08T04:20:56;11.30;;;9.90;;
47912;SDS011;33676;51.006;17.180;2023-09-08T04:23:23;9.10;;;8.40;;
47912;SDS011;33676;51.006;17.180;2023-09-08T04:25:50;10.40;;;9.50;;
47912;SDS011;33676;51.006;17.180;2023-09-08T04:28:17;10.40;;;9.40;;
47912;SDS011;33676;51.006;17.180;2023-09-08T04:30:44;10.10;;;9.30;;
47912;SDS011;33676;51.006;17.180;2023-09-08T04:33:11;10.00;;;9.00;;
47912;SDS011;33676;51.006;17.180;2023-09-08T04:35:39;10.30;;;9.20;;
47912;SDS011;33676;51.006;17.180;2023-09-08T04:38:06;15.90;;;9.70;;
47912;SDS011;33676;51.006;17.180;2023-09-08T04:40:34;12.50;;;10.00;;
47912;SDS011;33676;51.006;17.180;2023-09-08T04:43:01;10.10;;;8.40;;
47912;SDS011;33676;51.006;17.180;2023-09-08T04:45:28;10.00;;;9.20;;
47912;SDS011;33676;51.006;17.180;2023-09-08T04:47:55;11.00;;;9.50;;
47912;SDS011;33676;51.006;17.180;2023-09-08T04:50:22;9.00;;;8.20;;
47912;SDS011;33676;51.006;17.180;2023-09-08T04:52:49;11.20;;;10.20;;
47912;SDS011;33676;51.006;17.180;2023-09-08T04:55:17;11.00;;;9.90;;
47912;SDS011;33676;51.006;17.180;2023-09-08T04:57:44;11.00;;;10.00;;
47912;SDS011;33676;51.006;17.180;2023-09-08T05:00:12;13.10;;;11.80;;
47912;SDS011;33676;51.006;17.180;2023-09-08T05:02:39;16.80;;;12.40;;
47912;SDS011;33676;51.006;17.180;2023-09-08T05:05:06;15.30;;;13.80;;
47912;SDS011;33676;51.006;17.180;2023-09-08T05:07:34;15.00;;;13.70;;
47912;SDS011;33676;51.006;17.180;2023-09-08T05:10:01;14.40;;;13.10;;
47912;SDS011;33676;51.006;17.180;2023-09-08T05:12:28;14.50;;;13.10;;
47912;SDS011;33676;51.006;17.180;2023-09-08T05:14:55;15.30;;;13.70;;
47912;SDS011;33676;51.006;17.180;2023-09-08T05:17:26;14.30;;;12.80;;
47912;SDS011;33676;51.006;17.180;2023-09-08T05:19:53;16.30;;;14.80;;
47912;SDS011;33676;51.006;17.180;2023-09-08T05:22:20;17.70;;;16.10;;
47912;SDS011;33676;51.006;17.180;2023-09-08T05:24:48;22.30;;;20.30;;
47912;SDS011;33676;51.006;17.180;2023-09-08T05:27:15;19.80;;;17.80;;
47912;SDS011;33676;51.006;17.180;2023-09-08T05:29:42;19.40;;;17.70;;
47912;SDS011;33676;51.006;17.180;2023-09-08T05:32:09;28.00;;;25.20;;
47912;SDS011;33676;51.006;17.180;2023-09-08T05:34:36;25.10;;;22.70;;
47912;SDS011;33676;51.006;17.180;2023-09-08T05:37:03;19.50;;;17.70;;
47912;SDS011;33676;51.006;17.180;2023-09-08T05:39:30;18.90;;;17.20;;
47912;SDS011;33676;51.006;17.180;2023-09-08T05:41:57;19.10;;;16.90;;
47912;SDS011;33676;51.006;17.180;2023-09-08T05:44:24;20.50;;;17.90;;
47912;SDS011;33676;51.006;17.180;2023-09-08T05:46:51;19.00;;;17.00;;
47912;SDS011;33676;51.006;17.180;2023-09-08T05:49:19;15.60;;;14.20;;
47912;SDS011;33676;51.006;17.180;2023-09-08T05:51:46;17.00;;;15.50;;
47912;SDS011;33676;51.006;17.180;2023-09-08T05:54:13;17.10;;;15.70;;
47912;SDS011;33676;51.006;17.180;2023-09-08T05:56:40;16.40;;;15.00;;
47912;SDS011;33676;51.006;17.180;2023-09-08T05:59:07;18.50;;;17.00;;
47912;SDS011;33676;51.006;17.180;2023-09-08T06:01:34;13.40;;;12.00;;
47912;SDS011;33676;51.006;17.180;2023-09-08T06:04:01;18.40;;;16.80;;
47912;SDS011;33676;51.006;17.180;2023-09-08T06:06:29;18.10;;;16.50;;
47912;SDS011;33676;51.006;17.180;2023-09-08T06:08:56;16.80;;;15.30;;
47912;SDS011;33676;51.006;17.180;2023-09-08T06:11:23;16.90;;;15.50;;
47912;SDS011;33676;51.006;17.180;2023-09-08T06:13:50;17.70;;;16.00;;
47912;SDS011;33676;51.006;17.180;2023-09-08T06:16:19;19.40;;;16.40;;
47912;SDS011;33676;51.006;17.180;2023-09-08T06:18:46;19.10;;;15.60;;
47912;SDS011;33676;51.006;17.180;2023-09-08T06:21:13;16.80;;;15.10;;
47912;SDS011;33676;51.006;17.180;2023-09-08T06:23:40;17.10;;;15.70;;
47912;SDS011;33676;51.006;17.180;2023-09-08T06:26:07;17.70;;;16.10;;
47912;SDS011;33676;51.006;17.180;2023-09-08T06:28:34;18.00;;;16.40;;
47912;SDS011;33676;51.006;17.180;2023-09-08T06:31:02;17.80;;;16.10;;
47912;SDS011;33676;51.006;17.180;2023-09-08T06:33:31;18.00;;;16.30;;
47912;SDS011;33676;51.006;17.180;2023-09-08T06:35:58;18.80;;;17.20;;
47912;SDS011;33676;51.006;17.180;2023-09-08T06:38:25;19.60;;;17.70;;
47912;SDS011;33676;51.006;17.180;2023-09-08T06:40:52;23.60;;;20.40;;
47912;SDS011;33676;51.006;17.180;2023-09-08T06:43:20;20.60;;;18.10;;
47912;SDS011;33676;51.006;17.180;2023-09-08T06:45:48;20.40;;;18.30;;
47912;SDS011;33676;51.006;17.180;2023-09-08T06:48:16;20.60;;;18.20;;
47912;SDS011;33676;51.006;17.180;2023-09-08T06:50:43;22.20;;;20.30;;
47912;SDS011;33676;51.006;17.180;2023-09-08T06:53:10;22.90;;;20.60;;
47912;SDS011;33676;51.006;17.180;2023-09-08T06:55:39;23.60;;;21.20;;
47912;SDS011;33676;51.006;17.180;2023-09-08T06:58:09;23.40;;;21.00;;
47912;SDS011;33676;51.006;17.180;2023-09-08T07:00:37;22.20;;;20.10;;
47912;SDS011;33676;51.006;17.180;2023-09-08T07:03:04;21.90;;;20.10;;
47912;SDS011;33676;51.006;17.180;2023-09-08T07:05:32;26.00;;;23.40;;
47912;SDS011;33676;51.006;17.180;2023-09-08T07:07:59;28.10;;;25.50;;
47912;SDS011;33676;51.006;17.180;2023-09-08T07:10:26;25.50;;;22.90;;
47912;SDS011;33676;51.006;17.180;2023-09-08T07:12:53;22.20;;;19.90;;
47912;SDS011;33676;51.006;17.180;2023-09-08T07:15:21;22.70;;;20.60;;
47912;SDS011;33676;51.006;17.180;2023-09-08T07:17:47;23.20;;;20.90;;
47912;SDS011;33676;51.006;17.180;2023-09-08T07:20:15;22.90;;;20.80;;
47912;SDS011;33676;51.006;17.180;2023-09-08T07:22:42;21.70;;;19.50;;
47912;SDS011;33676;51.006;17.180;2023-09-08T07:25:09;22.50;;;20.30;;
47912;SDS011;33676;51.006;17.180;2023-09-08T07:27:36;24.20;;;19.70;;
47912;SDS011;33676;51.006;17.180;2023-09-08T07:30:03;21.50;;;19.50;;
47912;SDS011;33676;51.006;17.180;2023-09-08T07:32:31;23.00;;;20.90;;
47912;SDS011;33676;51.006;17.180;2023-09-08T07:34:58;22.60;;;20.30;;
47912;SDS011;33676;51.006;17.180;2023-09-08T07:37:25;22.50;;;20.30;;
47912;SDS011;33676;51.006;17.180;2023-09-08T07:39:52;23.00;;;20.50;;
47912;SDS011;33676;51.006;17.180;2023-09-08T07:42:19;20.40;;;18.50;;
47912;SDS011;33676;51.006;17.180;2023-09-08T07:44:47;21.90;;;19.80;;
47912;SDS011;33676;51.006;17.180;2023-09-08T07:47:14;19.60;;;17.80;;
47912;SDS011;33676;51.006;17.180;2023-09-08T07:49:45;21.00;;;19.10;;
47912;SDS011;33676;51.006;17.180;2023-09-08T07:52:14;21.40;;;19.60;;
47912;SDS011;33676;51.006;17.180;2023-09-08T07:54:41;23.30;;;20.90;;
47912;SDS011;33676;51.006;17.180;2023-09-08T07:57:09;22.20;;;19.90;;
47912;SDS011;33676;51.006;17.180;2023-09-08T07:59:36;20.40;;;18.40;;
47912;SDS011;33676;51.006;17.180;2023-09-08T08:02:04;21.90;;;19.70;;
47912;SDS011;33676;51.006;17.180;2023-09-08T08:04:31;21.20;;;19.10;;
47912;SDS011;33676;51.006;17.180;2023-09-08T08:06:58;21.50;;;19.40;;
47912;SDS011;33676;51.006;17.180;2023-09-08T08:09:25;22.60;;;20.30;;
47912;SDS011;33676;51.006;17.180;2023-09-08T08:11:52;20.90;;;18.70;;
47912;SDS011;33676;51.006;17.180;2023-09-08T08:14:19;21.40;;;19.10;;
47912;SDS011;33676;51.006;17.180;2023-09-08T08:16:46;22.10;;;20.00;;
47912;SDS011;33676;51.006;17.180;2023-09-08T08:19:13;21.70;;;19.50;;
47912;SDS011;33676;51.006;17.180;2023-09-08T08:21:40;20.40;;;18.40;;
47912;SDS011;33676;51.006;17.180;2023-09-08T08:24:08;20.40;;;18.30;;
47912;SDS011;33676;51.006;17.180;2023-09-08T08:26:37;22.90;;;18.30;;
47912;SDS011;33676;51.006;17.180;2023-09-08T08:29:04;18.90;;;17.10;;
47912;SDS011;33676;51.006;17.180;2023-09-08T08:31:31;20.10;;;18.10;;
47912;SDS011;33676;51.006;17.180;2023-09-08T08:33:59;20.20;;;18.30;;
47912;SDS011;33676;51.006;17.180;2023-09-08T08:36:26;20.80;;;18.90;;
47912;SDS011;33676;51.006;17.180;2023-09-08T08:38:54;17.10;;;15.40;;
47912;SDS011;33676;51.006;17.180;2023-09-08T08:41:21;18.20;;;16.60;;
47912;SDS011;33676;51.006;17.180;2023-09-08T08:43:48;17.00;;;15.40;;
47912;SDS011;33676;51.006;17.180;2023-09-08T08:46:16;22.90;;;20.60;;
47912;SDS011;33676;51.006;17.180;2023-09-08T08:48:44;19.20;;;17.30;;
47912;SDS011;33676;51.006;17.180;2023-09-08T08:51:12;18.40;;;16.80;;
47912;SDS011;33676;51.006;17.180;2023-09-08T08:53:41;16.80;;;14.70;;
47912;SDS011;33676;51.006;17.180;2023-09-08T08:56:09;17.30;;;15.70;;
47912;SDS011;33676;51.006;17.180;2023-09-08T08:58:37;17.20;;;14.90;;
47912;SDS011;33676;51.006;17.180;2023-09-08T09:01:07;17.00;;;15.40;;
47912;SDS011;33676;51.006;17.180;2023-09-08T09:03:34;17.70;;;16.10;;
47912;SDS011;33676;51.006;17.180;2023-09-08T09:06:04;18.50;;;16.90;;
47912;SDS011;33676;51.006;17.180;2023-09-08T09:08:32;18.60;;;15.70;;
47912;SDS011;33676;51.006;17.180;2023-09-08T09:11:00;15.20;;;13.80;;
47912;SDS011;33676;51.006;17.180;2023-09-08T09:13:27;17.40;;;15.70;;
47912;SDS011;33676;51.006;17.180;2023-09-08T09:15:59;15.40;;;13.90;;
47912;SDS011;33676;51.006;17.180;2023-09-08T09:18:27;14.90;;;13.40;;
47912;SDS011;33676;51.006;17.180;2023-09-08T09:20:59;14.70;;;13.50;;
47912;SDS011;33676;51.006;17.180;2023-09-08T09:23:28;16.70;;;15.00;;
47912;SDS011;33676;51.006;17.180;2023-09-08T09:25:57;14.30;;;12.70;;
47912;SDS011;33676;51.006;17.180;2023-09-08T09:28:26;13.90;;;12.40;;
47912;SDS011;33676;51.006;17.180;2023-09-08T09:30:55;14.60;;;12.90;;
47912;SDS011;33676;51.006;17.180;2023-09-08T09:33:23;13.40;;;12.20;;
47912;SDS011;33676;51.006;17.180;2023-09-08T09:35:51;13.90;;;12.60;;
47912;SDS011;33676;51.006;17.180;2023-09-08T09:38:20;14.30;;;12.90;;
47912;SDS011;33676;51.006;17.180;2023-09-08T09:40:48;12.60;;;11.60;;
47912;SDS011;33676;51.006;17.180;2023-09-08T09:43:16;11.60;;;10.70;;
47912;SDS011;33676;51.006;17.180;2023-09-08T09:45:44;14.00;;;12.40;;
47912;SDS011;33676;51.006;17.180;2023-09-08T09:48:11;14.70;;;13.30;;
47912;SDS011;33676;51.006;17.180;2023-09-08T09:50:41;23.40;;;21.60;;
47912;SDS011;33676;51.006;17.180;2023-09-08T09:53:16;28.00;;;25.20;;
47912;SDS011;33676;51.006;17.180;2023-09-08T09:55:44;14.60;;;13.40;;
47912;SDS011;33676;51.006;17.180;2023-09-08T09:58:12;11.50;;;10.50;;
47912;SDS011;33676;51.006;17.180;2023-09-08T10:00:40;16.40;;;13.80;;
47912;SDS011;33676;51.006;17.180;2023-09-08T10:03:08;16.50;;;14.10;;
47912;SDS011;33676;51.006;17.180;2023-09-08T10:05:37;13.50;;;12.30;;
47912;SDS011;33676;51.006;17.180;2023-09-08T10:08:04;13.30;;;12.00;;
47912;SDS011;33676;51.006;17.180;2023-09-08T10:10:32;11.40;;;10.40;;
47912;SDS011;33676;51.006;17.180;2023-09-08T10:13:06;12.10;;;10.40;;
47912;SDS011;33676;51.006;17.180;2023-09-08T10:15:34;11.60;;;10.50;;
47912;SDS011;33676;51.006;17.180;2023-09-08T10:18:06;11.70;;;10.20;;
47912;SDS011;33676;51.006;17.180;2023-09-08T10:20:37;9.30;;;8.60;;
47912;SDS011;33676;51.006;17.180;2023-09-08T10:23:07;11.10;;;10.10;;
47912;SDS011;33676;51.006;17.180;2023-09-08T10:25:43;10.30;;;9.40;;
47912;SDS011;33676;51.006;17.180;2023-09-08T10:28:23;10.60;;;9.60;;
47912;SDS011;33676;51.006;17.180;2023-09-08T10:30:51;11.60;;;10.50;;
47912;SDS011;33676;51.006;17.180;2023-09-08T10:33:19;9.70;;;9.00;;
47912;SDS011;33676;51.006;17.180;2023-09-08T10:35:47;9.50;;;8.70;;
47912;SDS011;33676;51.006;17.180;2023-09-08T10:38:25;10.30;;;9.50;;
47912;SDS011;33676;51.006;17.180;2023-09-08T10:43:44;9.50;;;8.80;;
47912;SDS011;33676;51.006;17.180;2023-09-08T10:46:21;9.40;;;8.60;;
47912;SDS011;33676;51.006;17.180;2023-09-08T10:48:49;8.00;;;7.40;;
47912;SDS011;33676;51.006;17.180;2023-09-08T10:51:17;9.00;;;8.30;;
47912;SDS011;33676;51.006;17.180;2023-09-08T10:53:47;8.00;;;7.30;;
47912;SDS011;33676;51.006;17.180;2023-09-08T10:56:16;8.00;;;7.40;;
47912;SDS011;33676;51.006;17.180;2023-09-08T10:58:49;8.00;;;7.20;;
47912;SDS011;33676;51.006;17.180;2023-09-08T11:01:20;8.30;;;7.60;;
47912;SDS011;33676;51.006;17.180;2023-09-08T11:03:54;9.90;;;9.10;;
47912;SDS011;33676;51.006;17.180;2023-09-08T11:06:22;11.90;;;10.90;;
47912;SDS011;33676;51.006;17.180;2023-09-08T11:08:49;30.00;;;27.50;;
47912;SDS011;33676;51.006;17.180;2023-09-08T11:11:22;8.80;;;8.00;;
47912;SDS011;33676;51.006;17.180;2023-09-08T11:13:49;9.00;;;8.10;;
47912;SDS011;33676;51.006;17.180;2023-09-08T11:16:16;8.50;;;7.80;;
47912;SDS011;33676;51.006;17.180;2023-09-08T11:18:52;8.50;;;7.80;;
47912;SDS011;33676;51.006;17.180;2023-09-08T11:21:19;8.80;;;8.00;;
47912;SDS011;33676;51.006;17.180;2023-09-08T11:23:46;8.70;;;7.80;;
47912;SDS011;33676;51.006;17.180;2023-09-08T11:26:14;7.70;;;7.10;;
47912;SDS011;33676;51.006;17.180;2023-09-08T11:28:41;8.80;;;6.90;;
47912;SDS011;33676;51.006;17.180;2023-09-08T11:31:11;7.60;;;7.00;;
47912;SDS011;33676;51.006;17.180;2023-09-08T11:33:38;7.20;;;6.70;;
47912;SDS011;33676;51.006;17.180;2023-09-08T11:36:13;6.20;;;5.80;;
47912;SDS011;33676;51.006;17.180;2023-09-08T11:38:42;7.20;;;6.60;;
47912;SDS011;33676;51.006;17.180;2023-09-08T11:41:11;8.30;;;7.50;;
47912;SDS011;33676;51.006;17.180;2023-09-08T11:43:41;6.90;;;6.30;;
47912;SDS011;33676;51.006;17.180;2023-09-08T11:46:08;8.10;;;7.40;;
47912;SDS011;33676;51.006;17.180;2023-09-08T11:48:37;6.80;;;6.40;;
47912;SDS011;33676;51.006;17.180;2023-09-08T11:51:08;6.50;;;5.90;;
47912;SDS011;33676;51.006;17.180;2023-09-08T11:53:35;12.20;;;11.20;;
47912;SDS011;33676;51.006;17.180;2023-09-08T11:56:04;9.70;;;8.80;;
47912;SDS011;33676;51.006;17.180;2023-09-08T11:58:32;9.10;;;7.90;;
47912;SDS011;33676;51.006;17.180;2023-09-08T12:01:00;6.50;;;5.90;;
47912;SDS011;33676;51.006;17.180;2023-09-08T12:03:30;6.10;;;5.60;;
47912;SDS011;33676;51.006;17.180;2023-09-08T12:05:57;6.00;;;5.30;;
47912;SDS011;33676;51.006;17.180;2023-09-08T12:08:25;6.70;;;6.10;;
47912;SDS011;33676;51.006;17.180;2023-09-08T12:10:56;6.40;;;6.00;;
47912;SDS011;33676;51.006;17.180;2023-09-08T12:13:23;5.50;;;5.20;;
47912;SDS011;33676;51.006;17.180;2023-09-08T12:15:50;7.00;;;6.30;;
47912;SDS011;33676;51.006;17.180;2023-09-08T12:18:18;6.30;;;5.80;;
47912;SDS011;33676;51.006;17.180;2023-09-08T12:20:45;7.60;;;7.10;;
47912;SDS011;33676;51.006;17.180;2023-09-08T12:23:21;5.70;;;5.10;;
47912;SDS011;33676;51.006;17.180;2023-09-08T12:25:50;5.70;;;5.30;;
47912;SDS011;33676;51.006;17.180;2023-09-08T12:28:19;5.60;;;5.20;;
47912;SDS011;33676;51.006;17.180;2023-09-08T12:30:51;5.30;;;5.00;;
47912;SDS011;33676;51.006;17.180;2023-09-08T12:33:21;6.20;;;5.70;;
47912;SDS011;33676;51.006;17.180;2023-09-08T12:35:49;6.00;;;5.40;;
47912;SDS011;33676;51.006;17.180;2023-09-08T12:38:17;7.60;;;7.00;;
47912;SDS011;33676;51.006;17.180;2023-09-08T12:40:45;5.50;;;5.20;;
47912;SDS011;33676;51.006;17.180;2023-09-08T12:43:12;5.60;;;5.20;;
47912;SDS011;33676;51.006;17.180;2023-09-08T12:45:54;5.20;;;4.90;;
47912;SDS011;33676;51.006;17.180;2023-09-08T12:48:23;5.00;;;4.60;;
47912;SDS011;33676;51.006;17.180;2023-09-08T12:50:50;5.10;;;4.70;;
47912;SDS011;33676;51.006;17.180;2023-09-08T12:53:18;6.70;;;4.70;;
47912;SDS011;33676;51.006;17.180;2023-09-08T12:55:46;7.10;;;5.90;;
47912;SDS011;33676;51.006;17.180;2023-09-08T12:58:14;5.70;;;5.20;;
47912;SDS011;33676;51.006;17.180;2023-09-08T13:00:43;6.00;;;5.60;;
47912;SDS011;33676;51.006;17.180;2023-09-08T13:03:11;5.10;;;4.80;;
47912;SDS011;33676;51.006;17.180;2023-09-08T13:05:38;4.90;;;4.40;;
47912;SDS011;33676;51.006;17.180;2023-09-08T13:08:06;9.30;;;5.00;;
47912;SDS011;33676;51.006;17.180;2023-09-08T13:10:33;5.20;;;4.80;;
47912;SDS011;33676;51.006;17.180;2023-09-08T13:13:00;5.60;;;5.10;;
47912;SDS011;33676;51.006;17.180;2023-09-08T13:15:28;5.30;;;4.90;;
47912;SDS011;33676;51.006;17.180;2023-09-08T13:17:55;5.70;;;5.20;;
47912;SDS011;33676;51.006;17.180;2023-09-08T13:20:23;5.30;;;4.70;;
47912;SDS011;33676;51.006;17.180;2023-09-08T13:22:50;5.00;;;4.60;;
47912;SDS011;33676;51.006;17.180;2023-09-08T13:25:17;8.10;;;7.40;;
47912;SDS011;33676;51.006;17.180;2023-09-08T13:27:45;5.70;;;5.30;;
47912;SDS011;33676;51.006;17.180;2023-09-08T13:30:15;5.60;;;5.10;;
47912;SDS011;33676;51.006;17.180;2023-09-08T13:32:44;5.10;;;4.80;;
47912;SDS011;33676;51.006;17.180;2023-09-08T13:35:11;5.50;;;5.10;;
47912;SDS011;33676;51.006;17.180;2023-09-08T13:37:39;4.50;;;4.20;;
47912;SDS011;33676;51.006;17.180;2023-09-08T13:40:06;5.60;;;5.20;;
47912;SDS011;33676;51.006;17.180;2023-09-08T13:42:35;5.10;;;4.70;;
47912;SDS011;33676;51.006;17.180;2023-09-08T13:45:03;5.70;;;5.40;;
47912;SDS011;33676;51.006;17.180;2023-09-08T13:47:31;5.30;;;4.90;;
47912;SDS011;33676;51.006;17.180;2023-09-08T13:50:00;5.40;;;5.00;;
47912;SDS011;33676;51.006;17.180;2023-09-08T13:52:29;4.80;;;4.50;;
47912;SDS011;33676;51.006;17.180;2023-09-08T13:54:59;5.00;;;4.70;;
47912;SDS011;33676;51.006;17.180;2023-09-08T13:57:46;4.50;;;4.20;;
47912;SDS011;33676;51.006;17.180;2023-09-08T14:00:17;3.90;;;3.70;;
47912;SDS011;33676;51.006;17.180;2023-09-08T14:02:50;4.70;;;4.40;;
47912;SDS011;33676;51.006;17.180;2023-09-08T14:05:20;4.90;;;4.50;;
47912;SDS011;33676;51.006;17.180;2023-09-08T14:07:55;4.70;;;4.40;;
47912;SDS011;33676;51.006;17.180;2023-09-08T14:10:34;4.40;;;4.00;;
47912;SDS011;33676;51.006;17.180;2023-09-08T14:13:04;4.30;;;4.10;;
47912;SDS011;33676;51.006;17.180;2023-09-08T14:15:31;5.00;;;4.40;;
47912;SDS011;33676;51.006;17.180;2023-09-08T14:18:08;4.70;;;4.40;;
47912;SDS011;33676;51.006;17.180;2023-09-08T14:20:42;4.50;;;4.20;;
47912;SDS011;33676;51.006;17.180;2023-09-08T14:23:10;5.10;;;4.80;;
47912;SDS011;33676;51.006;17.180;2023-09-08T14:25:40;5.20;;;4.90;;
47912;SDS011;33676;51.006;17.180;2023-09-08T14:28:08;5.70;;;5.30;;
47912;SDS011;33676;51.006;17.180;2023-09-08T14:30:35;4.60;;;4.30;;